Search for airport 
image banner adimage banner ad
image banner ad

SIID - Crepurizão Airport

Located in Itaituba, Brazil

ICAO - SIID, IATA -

Data provided by Airmate  

General information

Coordinates: S30°2'1" W50°22'20"
Elevation is 108 feet MSL.
Magnetic variation is -17° East
View others Airports in Rio Grande do Sul

Operational data

Open for public use
Current time UTC:
Current local time:
Weather at : SBCO - Canoas Airport ( 75 km )
METAR: SBCO 021400Z 14004KT 070V210 9999 FEW030 29/19 Q1010
TAF: TAF SBCO 020900Z 0212/0224 12008KT 9999 SCT030 TX28/0217Z TN22/0223Z BECMG 0216/0218 12010KT 9000 SHRA FEW018 FEW030TCU BECMG 0219/0221 10004KT 9999 FEW022 FEW032 RMK PAY
View NOTAMs / SUP AIP / TFR affecting this airport [VIEW]
Communications frequencies: [VIEW]

Runways:

RWY identifierQFULength (ft)Width (ft)SurfaceLDA (ft)
02262459GRASS
20262459GRASS

Airport contact information

Address: Itaituba Brazil

Satellite view of SIID